sensor_id;sensor_type;location;lat;lon;timestamp;P1;durP1;ratioP1;P2;durP2;ratioP2
27305;SDS011;14792;50.886;6.468;2023-12-22T00:05:04;13.43;;;1.87;;
27305;SDS011;14792;50.886;6.468;2023-12-22T00:08:05;11.45;;;2.12;;
27305;SDS011;14792;50.886;6.468;2023-12-22T00:11:07;9.48;;;2.27;;
27305;SDS011;14792;50.886;6.468;2023-12-22T00:14:08;10.80;;;1.62;;
27305;SDS011;14792;50.886;6.468;2023-12-22T00:17:11;8.48;;;1.80;;
27305;SDS011;14792;50.886;6.468;2023-12-22T00:20:12;15.48;;;1.87;;
27305;SDS011;14792;50.886;6.468;2023-12-22T00:23:14;9.65;;;1.95;;
27305;SDS011;14792;50.886;6.468;2023-12-22T00:26:15;8.35;;;1.90;;
27305;SDS011;14792;50.886;6.468;2023-12-22T00:29:19;14.63;;;2.58;;
27305;SDS011;14792;50.886;6.468;2023-12-22T00:32:21;11.08;;;1.90;;
27305;SDS011;14792;50.886;6.468;2023-12-22T00:35:22;17.27;;;2.00;;
27305;SDS011;14792;50.886;6.468;2023-12-22T00:38:24;11.65;;;1.90;;
27305;SDS011;14792;50.886;6.468;2023-12-22T00:41:26;13.25;;;2.92;;
27305;SDS011;14792;50.886;6.468;2023-12-22T00:44:27;17.60;;;2.98;;
27305;SDS011;14792;50.886;6.468;2023-12-22T00:47:29;15.72;;;2.45;;
27305;SDS011;14792;50.886;6.468;2023-12-22T00:50:30;14.18;;;3.37;;
27305;SDS011;14792;50.886;6.468;2023-12-22T00:53:32;17.35;;;2.22;;
27305;SDS011;14792;50.886;6.468;2023-12-22T00:56:34;13.10;;;2.33;;
27305;SDS011;14792;50.886;6.468;2023-12-22T00:59:35;15.58;;;3.15;;
27305;SDS011;14792;50.886;6.468;2023-12-22T01:02:37;13.70;;;2.22;;
27305;SDS011;14792;50.886;6.468;2023-12-22T01:05:39;13.85;;;2.10;;
27305;SDS011;14792;50.886;6.468;2023-12-22T01:08:40;17.10;;;2.77;;
27305;SDS011;14792;50.886;6.468;2023-12-22T01:11:42;16.87;;;3.12;;
27305;SDS011;14792;50.886;6.468;2023-12-22T01:14:43;10.35;;;1.92;;
27305;SDS011;14792;50.886;6.468;2023-12-22T01:17:46;13.72;;;2.72;;
27305;SDS011;14792;50.886;6.468;2023-12-22T01:20:47;16.32;;;2.75;;
27305;SDS011;14792;50.886;6.468;2023-12-22T01:23:49;20.62;;;2.55;;
27305;SDS011;14792;50.886;6.468;2023-12-22T01:26:50;17.25;;;2.47;;
27305;SDS011;14792;50.886;6.468;2023-12-22T01:29:52;21.65;;;3.72;;
27305;SDS011;14792;50.886;6.468;2023-12-22T01:32:54;18.55;;;3.25;;
27305;SDS011;14792;50.886;6.468;2023-12-22T01:35:56;16.05;;;2.42;;
27305;SDS011;14792;50.886;6.468;2023-12-22T01:38:57;14.40;;;3.25;;
27305;SDS011;14792;50.886;6.468;2023-12-22T01:41:59;24.10;;;3.12;;
27305;SDS011;14792;50.886;6.468;2023-12-22T01:45:00;31.25;;;3.80;;
27305;SDS011;14792;50.886;6.468;2023-12-22T01:48:02;16.90;;;4.03;;
27305;SDS011;14792;50.886;6.468;2023-12-22T01:51:04;25.52;;;3.37;;
27305;SDS011;14792;50.886;6.468;2023-12-22T01:54:05;19.73;;;3.85;;
27305;SDS011;14792;50.886;6.468;2023-12-22T01:57:07;22.20;;;3.10;;
27305;SDS011;14792;50.886;6.468;2023-12-22T02:00:08;14.10;;;2.35;;
27305;SDS011;14792;50.886;6.468;2023-12-22T02:03:10;15.58;;;3.12;;
27305;SDS011;14792;50.886;6.468;2023-12-22T02:06:17;12.33;;;2.55;;
27305;SDS011;14792;50.886;6.468;2023-12-22T02:33:17;15.90;;;2.75;;
27305;SDS011;14792;50.886;6.468;2023-12-22T02:48:14;19.67;;;2.95;;
27305;SDS011;14792;50.886;6.468;2023-12-22T02:55:16;18.82;;;3.45;;
27305;SDS011;14792;50.886;6.468;2023-12-22T02:58:17;20.05;;;3.83;;
27305;SDS011;14792;50.886;6.468;2023-12-22T03:01:19;15.28;;;3.00;;
27305;SDS011;14792;50.886;6.468;2023-12-22T03:04:20;27.40;;;4.40;;
27305;SDS011;14792;50.886;6.468;2023-12-22T03:07:22;26.12;;;4.10;;
27305;SDS011;14792;50.886;6.468;2023-12-22T03:10:23;20.45;;;3.77;;
27305;SDS011;14792;50.886;6.468;2023-12-22T03:13:25;21.82;;;3.40;;
27305;SDS011;14792;50.886;6.468;2023-12-22T03:16:27;23.98;;;3.17;;
27305;SDS011;14792;50.886;6.468;2023-12-22T03:19:28;21.20;;;2.72;;
27305;SDS011;14792;50.886;6.468;2023-12-22T03:22:30;22.15;;;3.50;;
27305;SDS011;14792;50.886;6.468;2023-12-22T03:25:31;14.80;;;3.00;;
27305;SDS011;14792;50.886;6.468;2023-12-22T03:28:33;20.17;;;3.02;;
27305;SDS011;14792;50.886;6.468;2023-12-22T03:31:34;17.85;;;2.70;;
27305;SDS011;14792;50.886;6.468;2023-12-22T03:34:36;15.98;;;3.45;;
27305;SDS011;14792;50.886;6.468;2023-12-22T03:37:38;14.35;;;2.58;;
27305;SDS011;14792;50.886;6.468;2023-12-22T03:40:39;14.63;;;2.20;;
27305;SDS011;14792;50.886;6.468;2023-12-22T03:43:41;10.55;;;2.00;;
27305;SDS011;14792;50.886;6.468;2023-12-22T03:46:42;16.25;;;2.67;;
27305;SDS011;14792;50.886;6.468;2023-12-22T03:49:44;15.15;;;2.95;;
27305;SDS011;14792;50.886;6.468;2023-12-22T03:52:46;10.98;;;2.40;;
27305;SDS011;14792;50.886;6.468;2023-12-22T03:55:47;15.15;;;2.60;;
27305;SDS011;14792;50.886;6.468;2023-12-22T03:58:49;9.28;;;2.02;;
27305;SDS011;14792;50.886;6.468;2023-12-22T04:01:51;17.27;;;2.60;;
27305;SDS011;14792;50.886;6.468;2023-12-22T04:04:55;21.90;;;2.65;;
27305;SDS011;14792;50.886;6.468;2023-12-22T04:07:57;17.10;;;3.00;;
27305;SDS011;14792;50.886;6.468;2023-12-22T04:10:58;17.07;;;2.72;;
27305;SDS011;14792;50.886;6.468;2023-12-22T04:14:00;26.05;;;3.87;;
27305;SDS011;14792;50.886;6.468;2023-12-22T04:17:01;22.58;;;2.98;;
27305;SDS011;14792;50.886;6.468;2023-12-22T04:20:03;16.50;;;3.80;;
27305;SDS011;14792;50.886;6.468;2023-12-22T04:23:04;24.82;;;3.98;;
27305;SDS011;14792;50.886;6.468;2023-12-22T04:26:06;16.52;;;3.00;;
27305;SDS011;14792;50.886;6.468;2023-12-22T04:29:08;20.95;;;3.83;;
27305;SDS011;14792;50.886;6.468;2023-12-22T04:32:09;27.15;;;4.10;;
27305;SDS011;14792;50.886;6.468;2023-12-22T04:35:17;22.37;;;4.22;;
27305;SDS011;14792;50.886;6.468;2023-12-22T04:38:18;21.82;;;3.08;;
27305;SDS011;14792;50.886;6.468;2023-12-22T04:41:20;20.77;;;3.40;;
27305;SDS011;14792;50.886;6.468;2023-12-22T04:44:22;23.30;;;3.85;;
27305;SDS011;14792;50.886;6.468;2023-12-22T04:47:23;18.77;;;3.12;;
27305;SDS011;14792;50.886;6.468;2023-12-22T04:50:25;21.42;;;3.37;;
27305;SDS011;14792;50.886;6.468;2023-12-22T04:53:26;20.57;;;3.40;;
27305;SDS011;14792;50.886;6.468;2023-12-22T04:56:28;19.87;;;3.45;;
27305;SDS011;14792;50.886;6.468;2023-12-22T04:59:30;23.65;;;4.15;;
27305;SDS011;14792;50.886;6.468;2023-12-22T05:02:31;14.73;;;3.58;;
27305;SDS011;14792;50.886;6.468;2023-12-22T05:05:33;16.32;;;3.65;;
27305;SDS011;14792;50.886;6.468;2023-12-22T05:08:34;22.85;;;3.83;;
27305;SDS011;14792;50.886;6.468;2023-12-22T05:11:36;22.05;;;3.25;;
27305;SDS011;14792;50.886;6.468;2023-12-22T05:14:38;23.47;;;4.35;;
27305;SDS011;14792;50.886;6.468;2023-12-22T05:17:39;17.02;;;3.37;;
27305;SDS011;14792;50.886;6.468;2023-12-22T05:20:41;23.35;;;3.58;;
27305;SDS011;14792;50.886;6.468;2023-12-22T05:23:42;22.05;;;3.72;;
27305;SDS011;14792;50.886;6.468;2023-12-22T05:26:44;22.07;;;3.65;;
27305;SDS011;14792;50.886;6.468;2023-12-22T05:29:45;18.25;;;3.35;;
27305;SDS011;14792;50.886;6.468;2023-12-22T05:32:47;20.97;;;3.05;;
27305;SDS011;14792;50.886;6.468;2023-12-22T05:35:49;16.02;;;3.25;;
27305;SDS011;14792;50.886;6.468;2023-12-22T05:38:50;30.75;;;5.42;;
27305;SDS011;14792;50.886;6.468;2023-12-22T05:41:52;12.75;;;2.95;;
27305;SDS011;14792;50.886;6.468;2023-12-22T05:44:53;17.07;;;3.22;;
27305;SDS011;14792;50.886;6.468;2023-12-22T05:47:55;24.30;;;3.58;;
27305;SDS011;14792;50.886;6.468;2023-12-22T05:50:57;23.45;;;3.37;;
27305;SDS011;14792;50.886;6.468;2023-12-22T05:53:58;19.52;;;3.87;;
27305;SDS011;14792;50.886;6.468;2023-12-22T05:57:00;22.05;;;3.35;;
27305;SDS011;14792;50.886;6.468;2023-12-22T06:00:02;19.95;;;3.67;;
27305;SDS011;14792;50.886;6.468;2023-12-22T06:03:03;20.50;;;3.17;;
27305;SDS011;14792;50.886;6.468;2023-12-22T06:06:04;21.48;;;2.95;;
27305;SDS011;14792;50.886;6.468;2023-12-22T06:09:06;23.55;;;3.60;;
27305;SDS011;14792;50.886;6.468;2023-12-22T06:12:08;22.20;;;3.80;;
27305;SDS011;14792;50.886;6.468;2023-12-22T06:15:10;25.97;;;4.28;;
27305;SDS011;14792;50.886;6.468;2023-12-22T06:18:11;15.80;;;3.10;;
27305;SDS011;14792;50.886;6.468;2023-12-22T06:33:14;22.67;;;3.45;;
27305;SDS011;14792;50.886;6.468;2023-12-22T06:44:18;21.60;;;3.37;;
27305;SDS011;14792;50.886;6.468;2023-12-22T06:51:19;27.77;;;3.62;;
27305;SDS011;14792;50.886;6.468;2023-12-22T07:06:16;44.05;;;6.95;;
27305;SDS011;14792;50.886;6.468;2023-12-22T07:12:23;33.25;;;5.95;;
27305;SDS011;14792;50.886;6.468;2023-12-22T07:15:24;39.63;;;5.95;;
27305;SDS011;14792;50.886;6.468;2023-12-22T07:18:26;37.88;;;6.22;;
27305;SDS011;14792;50.886;6.468;2023-12-22T07:21:28;44.33;;;6.53;;
27305;SDS011;14792;50.886;6.468;2023-12-22T07:24:29;42.25;;;7.00;;
27305;SDS011;14792;50.886;6.468;2023-12-22T07:27:31;36.08;;;6.40;;
27305;SDS011;14792;50.886;6.468;2023-12-22T07:30:33;49.35;;;8.10;;
27305;SDS011;14792;50.886;6.468;2023-12-22T07:33:34;42.70;;;7.35;;
27305;SDS011;14792;50.886;6.468;2023-12-22T07:36:36;41.90;;;6.40;;
27305;SDS011;14792;50.886;6.468;2023-12-22T07:39:37;42.10;;;6.10;;
27305;SDS011;14792;50.886;6.468;2023-12-22T07:42:39;39.98;;;6.12;;
27305;SDS011;14792;50.886;6.468;2023-12-22T07:45:41;35.13;;;5.80;;
27305;SDS011;14792;50.886;6.468;2023-12-22T07:52:18;42.25;;;6.35;;
27305;SDS011;14792;50.886;6.468;2023-12-22T07:55:20;42.43;;;6.65;;
27305;SDS011;14792;50.886;6.468;2023-12-22T07:58:25;42.70;;;5.90;;
27305;SDS011;14792;50.886;6.468;2023-12-22T08:01:23;36.15;;;5.62;;
27305;SDS011;14792;50.886;6.468;2023-12-22T08:04:25;39.23;;;6.40;;
27305;SDS011;14792;50.886;6.468;2023-12-22T08:07:26;42.62;;;6.20;;
27305;SDS011;14792;50.886;6.468;2023-12-22T08:10:28;40.05;;;6.05;;
27305;SDS011;14792;50.886;6.468;2023-12-22T08:13:29;34.67;;;6.70;;
27305;SDS011;14792;50.886;6.468;2023-12-22T08:16:31;32.42;;;5.78;;
27305;SDS011;14792;50.886;6.468;2023-12-22T08:19:33;45.03;;;6.45;;
27305;SDS011;14792;50.886;6.468;2023-12-22T08:22:34;31.82;;;5.67;;
27305;SDS011;14792;50.886;6.468;2023-12-22T08:29:17;26.97;;;5.22;;
27305;SDS011;14792;50.886;6.468;2023-12-22T08:32:19;31.02;;;5.83;;
27305;SDS011;14792;50.886;6.468;2023-12-22T08:35:20;31.42;;;6.37;;
27305;SDS011;14792;50.886;6.468;2023-12-22T08:38:22;41.60;;;6.47;;
27305;SDS011;14792;50.886;6.468;2023-12-22T08:41:24;32.00;;;6.20;;
27305;SDS011;14792;50.886;6.468;2023-12-22T08:44:25;35.88;;;6.87;;
27305;SDS011;14792;50.886;6.468;2023-12-22T08:47:27;38.90;;;7.53;;
27305;SDS011;14792;50.886;6.468;2023-12-22T08:50:29;37.38;;;6.17;;
27305;SDS011;14792;50.886;6.468;2023-12-22T08:53:30;40.08;;;6.17;;
27305;SDS011;14792;50.886;6.468;2023-12-22T08:56:32;35.58;;;5.83;;
27305;SDS011;14792;50.886;6.468;2023-12-22T08:59:33;28.52;;;5.95;;
27305;SDS011;14792;50.886;6.468;2023-12-22T09:02:35;28.62;;;5.90;;
27305;SDS011;14792;50.886;6.468;2023-12-22T09:05:36;31.82;;;5.53;;
27305;SDS011;14792;50.886;6.468;2023-12-22T09:08:38;28.90;;;5.72;;
27305;SDS011;14792;50.886;6.468;2023-12-22T09:11:40;29.60;;;5.30;;
27305;SDS011;14792;50.886;6.468;2023-12-22T09:14:41;29.25;;;5.55;;
27305;SDS011;14792;50.886;6.468;2023-12-22T09:17:43;26.50;;;4.70;;
27305;SDS011;14792;50.886;6.468;2023-12-22T09:20:44;23.85;;;4.05;;
27305;SDS011;14792;50.886;6.468;2023-12-22T09:23:46;21.48;;;4.28;;
27305;SDS011;14792;50.886;6.468;2023-12-22T09:26:48;23.75;;;3.87;;
27305;SDS011;14792;50.886;6.468;2023-12-22T09:29:49;33.25;;;5.08;;
27305;SDS011;14792;50.886;6.468;2023-12-22T09:32:51;21.52;;;3.80;;
27305;SDS011;14792;50.886;6.468;2023-12-22T09:35:52;12.00;;;3.17;;
27305;SDS011;14792;50.886;6.468;2023-12-22T09:39:15;20.85;;;3.65;;
27305;SDS011;14792;50.886;6.468;2023-12-22T09:42:16;16.45;;;4.33;;
27305;SDS011;14792;50.886;6.468;2023-12-22T09:45:18;18.48;;;3.85;;
27305;SDS011;14792;50.886;6.468;2023-12-22T09:48:23;10.70;;;2.47;;
27305;SDS011;14792;50.886;6.468;2023-12-22T09:51:21;13.35;;;3.40;;
27305;SDS011;14792;50.886;6.468;2023-12-22T09:54:23;16.90;;;3.47;;
27305;SDS011;14792;50.886;6.468;2023-12-22T09:57:24;13.32;;;2.60;;
27305;SDS011;14792;50.886;6.468;2023-12-22T10:00:26;10.98;;;3.17;;
27305;SDS011;14792;50.886;6.468;2023-12-22T10:03:27;15.98;;;3.90;;
27305;SDS011;14792;50.886;6.468;2023-12-22T10:06:29;10.80;;;3.25;;
27305;SDS011;14792;50.886;6.468;2023-12-22T10:09:31;17.00;;;4.00;;
27305;SDS011;14792;50.886;6.468;2023-12-22T10:12:33;11.68;;;3.25;;
27305;SDS011;14792;50.886;6.468;2023-12-22T10:15:34;11.15;;;3.50;;
27305;SDS011;14792;50.886;6.468;2023-12-22T10:18:35;17.35;;;3.98;;
27305;SDS011;14792;50.886;6.468;2023-12-22T10:21:37;14.20;;;4.42;;
27305;SDS011;14792;50.886;6.468;2023-12-22T10:27:43;14.50;;;3.42;;
27305;SDS011;14792;50.886;6.468;2023-12-22T10:30:44;13.60;;;2.87;;
27305;SDS011;14792;50.886;6.468;2023-12-22T10:33:46;11.90;;;2.83;;
27305;SDS011;14792;50.886;6.468;2023-12-22T10:44:16;8.28;;;2.52;;
27305;SDS011;14792;50.886;6.468;2023-12-22T11:11:16;6.47;;;2.83;;
27305;SDS011;14792;50.886;6.468;2023-12-22T11:22:16;4.65;;;1.80;;
27305;SDS011;14792;50.886;6.468;2023-12-22T11:49:16;4.85;;;1.70;;
27305;SDS011;14792;50.886;6.468;2023-12-22T12:04:14;5.97;;;1.47;;
27305;SDS011;14792;50.886;6.468;2023-12-22T12:10:51;6.00;;;1.70;;
27305;SDS011;14792;50.886;6.468;2023-12-22T12:13:52;6.37;;;1.57;;
27305;SDS011;14792;50.886;6.468;2023-12-22T12:17:08;7.37;;;1.60;;
27305;SDS011;14792;50.886;6.468;2023-12-22T12:20:10;6.80;;;2.02;;
27305;SDS011;14792;50.886;6.468;2023-12-22T12:23:17;8.23;;;1.90;;
27305;SDS011;14792;50.886;6.468;2023-12-22T12:26:19;9.43;;;1.52;;
27305;SDS011;14792;50.886;6.468;2023-12-22T12:29:21;6.12;;;1.67;;
27305;SDS011;14792;50.886;6.468;2023-12-22T12:32:22;7.37;;;1.77;;
27305;SDS011;14792;50.886;6.468;2023-12-22T12:35:24;4.20;;;1.42;;
27305;SDS011;14792;50.886;6.468;2023-12-22T12:38:30;10.15;;;2.22;;
27305;SDS011;14792;50.886;6.468;2023-12-22T12:41:45;8.25;;;1.87;;
27305;SDS011;14792;50.886;6.468;2023-12-22T12:44:47;7.85;;;1.90;;
27305;SDS011;14792;50.886;6.468;2023-12-22T12:47:55;6.50;;;2.33;;
27305;SDS011;14792;50.886;6.468;2023-12-22T12:51:06;10.08;;;1.82;;
27305;SDS011;14792;50.886;6.468;2023-12-22T12:54:04;6.80;;;1.90;;
27305;SDS011;14792;50.886;6.468;2023-12-22T12:57:05;7.00;;;1.95;;
27305;SDS011;14792;50.886;6.468;2023-12-22T13:00:07;4.03;;;2.10;;
27305;SDS011;14792;50.886;6.468;2023-12-22T13:03:08;5.75;;;1.65;;
27305;SDS011;14792;50.886;6.468;2023-12-22T13:06:10;9.73;;;1.95;;
27305;SDS011;14792;50.886;6.468;2023-12-22T13:09:12;6.40;;;2.15;;
27305;SDS011;14792;50.886;6.468;2023-12-22T13:12:16;9.33;;;2.50;;
27305;SDS011;14792;50.886;6.468;2023-12-22T13:15:17;6.72;;;2.20;;
27305;SDS011;14792;50.886;6.468;2023-12-22T13:18:19;6.60;;;1.82;;
27305;SDS011;14792;50.886;6.468;2023-12-22T13:21:21;5.15;;;2.08;;
27305;SDS011;14792;50.886;6.468;2023-12-22T13:24:22;5.67;;;1.90;;
27305;SDS011;14792;50.886;6.468;2023-12-22T13:27:24;6.35;;;2.30;;
27305;SDS011;14792;50.886;6.468;2023-12-22T13:30:34;7.30;;;2.25;;
27305;SDS011;14792;50.886;6.468;2023-12-22T13:33:36;10.25;;;2.25;;
27305;SDS011;14792;50.886;6.468;2023-12-22T13:36:38;5.80;;;1.80;;
27305;SDS011;14792;50.886;6.468;2023-12-22T13:39:39;7.28;;;2.45;;
27305;SDS011;14792;50.886;6.468;2023-12-22T13:42:41;12.33;;;1.95;;
27305;SDS011;14792;50.886;6.468;2023-12-22T13:45:42;12.65;;;2.20;;
27305;SDS011;14792;50.886;6.468;2023-12-22T13:48:44;8.73;;;1.98;;
27305;SDS011;14792;50.886;6.468;2023-12-22T13:51:45;8.68;;;2.30;;
27305;SDS011;14792;50.886;6.468;2023-12-22T13:54:49;5.75;;;2.10;;
27305;SDS011;14792;50.886;6.468;2023-12-22T13:57:58;7.80;;;2.05;;
27305;SDS011;14792;50.886;6.468;2023-12-22T14:00:53;7.10;;;2.15;;
27305;SDS011;14792;50.886;6.468;2023-12-22T14:03:54;9.35;;;1.90;;
27305;SDS011;14792;50.886;6.468;2023-12-22T14:06:56;5.58;;;1.52;;
27305;SDS011;14792;50.886;6.468;2023-12-22T14:09:57;10.85;;;1.98;;
27305;SDS011;14792;50.886;6.468;2023-12-22T14:12:59;6.78;;;1.95;;
27305;SDS011;14792;50.886;6.468;2023-12-22T14:16:00;8.08;;;1.60;;
27305;SDS011;14792;50.886;6.468;2023-12-22T14:19:02;9.43;;;1.67;;
27305;SDS011;14792;50.886;6.468;2023-12-22T14:22:04;7.45;;;1.57;;
27305;SDS011;14792;50.886;6.468;2023-12-22T14:25:05;12.37;;;1.85;;
27305;SDS011;14792;50.886;6.468;2023-12-22T14:28:07;9.43;;;1.98;;
27305;SDS011;14792;50.886;6.468;2023-12-22T14:31:08;9.63;;;2.00;;
27305;SDS011;14792;50.886;6.468;2023-12-22T14:34:12;11.73;;;2.30;;
27305;SDS011;14792;50.886;6.468;2023-12-22T14:37:12;8.93;;;3.22;;
27305;SDS011;14792;50.886;6.468;2023-12-22T14:40:13;7.15;;;1.98;;
27305;SDS011;14792;50.886;6.468;2023-12-22T14:43:15;10.70;;;2.50;;
27305;SDS011;14792;50.886;6.468;2023-12-22T14:46:16;11.90;;;2.37;;
27305;SDS011;14792;50.886;6.468;2023-12-22T14:49:18;8.93;;;2.27;;
27305;SDS011;14792;50.886;6.468;2023-12-22T15:00:16;6.90;;;1.95;;
27305;SDS011;14792;50.886;6.468;2023-12-22T15:19:16;16.20;;;3.65;;
27305;SDS011;14792;50.886;6.468;2023-12-22T15:38:15;12.58;;;2.00;;
27305;SDS011;14792;50.886;6.468;2023-12-22T15:53:15;7.60;;;2.12;;
27305;SDS011;14792;50.886;6.468;2023-12-22T15:56:17;11.55;;;2.75;;
27305;SDS011;14792;50.886;6.468;2023-12-22T16:03:15;15.63;;;2.55;;
27305;SDS011;14792;50.886;6.468;2023-12-22T16:06:17;13.28;;;2.87;;
27305;SDS011;14792;50.886;6.468;2023-12-22T16:13:15;7.17;;;1.82;;
27305;SDS011;14792;50.886;6.468;2023-12-22T16:28:15;6.62;;;2.17;;
27305;SDS011;14792;50.886;6.468;2023-12-22T16:39:14;13.88;;;3.05;;
27305;SDS011;14792;50.886;6.468;2023-12-22T16:42:16;17.02;;;3.55;;
27305;SDS011;14792;50.886;6.468;2023-12-22T16:45:17;11.68;;;3.37;;
27305;SDS011;14792;50.886;6.468;2023-12-22T16:48:19;9.13;;;3.17;;
27305;SDS011;14792;50.886;6.468;2023-12-22T16:51:20;12.88;;;2.58;;
27305;SDS011;14792;50.886;6.468;2023-12-22T16:54:22;13.75;;;3.90;;
27305;SDS011;14792;50.886;6.468;2023-12-22T16:57:23;11.75;;;3.00;;
27305;SDS011;14792;50.886;6.468;2023-12-22T17:00:25;17.17;;;3.37;;
27305;SDS011;14792;50.886;6.468;2023-12-22T17:03:26;8.50;;;2.87;;
27305;SDS011;14792;50.886;6.468;2023-12-22T17:06:28;11.83;;;2.47;;
27305;SDS011;14792;50.886;6.468;2023-12-22T17:09:30;12.63;;;2.30;;
27305;SDS011;14792;50.886;6.468;2023-12-22T17:12:31;13.00;;;2.62;;
27305;SDS011;14792;50.886;6.468;2023-12-22T17:15:33;12.13;;;2.40;;
27305;SDS011;14792;50.886;6.468;2023-12-22T17:18:35;8.75;;;2.25;;
27305;SDS011;14792;50.886;6.468;2023-12-22T17:21:37;17.32;;;2.87;;
27305;SDS011;14792;50.886;6.468;2023-12-22T17:24:38;14.05;;;2.87;;
27305;SDS011;14792;50.886;6.468;2023-12-22T17:27:40;14.33;;;2.83;;
27305;SDS011;14792;50.886;6.468;2023-12-22T17:30:41;9.73;;;2.37;;
27305;SDS011;14792;50.886;6.468;2023-12-22T17:33:43;14.58;;;3.45;;
27305;SDS011;14792;50.886;6.468;2023-12-22T17:36:44;15.25;;;3.17;;
27305;SDS011;14792;50.886;6.468;2023-12-22T17:39:46;10.68;;;3.42;;
27305;SDS011;14792;50.886;6.468;2023-12-22T17:42:48;10.90;;;3.20;;
27305;SDS011;14792;50.886;6.468;2023-12-22T17:45:50;9.75;;;2.60;;
27305;SDS011;14792;50.886;6.468;2023-12-22T17:48:54;12.90;;;2.52;;
27305;SDS011;14792;50.886;6.468;2023-12-22T17:51:56;9.55;;;2.50;;
27305;SDS011;14792;50.886;6.468;2023-12-22T17:54:57;10.82;;;2.30;;
27305;SDS011;14792;50.886;6.468;2023-12-22T17:57:59;11.28;;;2.85;;
27305;SDS011;14792;50.886;6.468;2023-12-22T18:01:00;10.28;;;2.47;;
27305;SDS011;14792;50.886;6.468;2023-12-22T18:04:02;11.10;;;2.27;;
27305;SDS011;14792;50.886;6.468;2023-12-22T18:07:04;12.30;;;2.62;;
27305;SDS011;14792;50.886;6.468;2023-12-22T18:10:05;10.60;;;2.45;;
27305;SDS011;14792;50.886;6.468;2023-12-22T18:13:07;8.40;;;1.95;;
27305;SDS011;14792;50.886;6.468;2023-12-22T18:16:08;13.13;;;3.27;;
27305;SDS011;14792;50.886;6.468;2023-12-22T18:19:10;11.25;;;2.00;;
27305;SDS011;14792;50.886;6.468;2023-12-22T18:22:12;10.55;;;2.58;;
27305;SDS011;14792;50.886;6.468;2023-12-22T18:25:13;10.58;;;2.42;;
27305;SDS011;14792;50.886;6.468;2023-12-22T18:28:15;9.20;;;2.33;;
27305;SDS011;14792;50.886;6.468;2023-12-22T18:31:16;11.50;;;2.67;;
27305;SDS011;14792;50.886;6.468;2023-12-22T18:34:18;14.20;;;2.50;;
27305;SDS011;14792;50.886;6.468;2023-12-22T18:37:20;9.13;;;2.25;;
27305;SDS011;14792;50.886;6.468;2023-12-22T18:40:21;13.30;;;2.90;;
27305;SDS011;14792;50.886;6.468;2023-12-22T18:43:23;7.47;;;2.05;;
27305;SDS011;14792;50.886;6.468;2023-12-22T18:46:25;8.40;;;2.30;;
27305;SDS011;14792;50.886;6.468;2023-12-22T18:49:26;6.47;;;1.67;;
27305;SDS011;14792;50.886;6.468;2023-12-22T18:52:28;7.30;;;2.05;;
27305;SDS011;14792;50.886;6.468;2023-12-22T18:55:29;9.08;;;2.05;;
27305;SDS011;14792;50.886;6.468;2023-12-22T18:58:31;11.63;;;2.70;;
27305;SDS011;14792;50.886;6.468;2023-12-22T19:01:33;10.43;;;2.15;;
27305;SDS011;14792;50.886;6.468;2023-12-22T19:04:34;10.63;;;2.17;;
27305;SDS011;14792;50.886;6.468;2023-12-22T19:07:36;10.20;;;1.98;;
27305;SDS011;14792;50.886;6.468;2023-12-22T19:10:37;6.90;;;1.62;;
27305;SDS011;14792;50.886;6.468;2023-12-22T19:13:39;10.53;;;1.82;;
27305;SDS011;14792;50.886;6.468;2023-12-22T19:16:40;9.03;;;1.70;;
27305;SDS011;14792;50.886;6.468;2023-12-22T19:19:42;8.90;;;1.87;;
27305;SDS011;14792;50.886;6.468;2023-12-22T19:22:44;7.35;;;2.08;;
27305;SDS011;14792;50.886;6.468;2023-12-22T19:25:45;11.03;;;2.10;;
27305;SDS011;14792;50.886;6.468;2023-12-22T19:28:47;11.05;;;2.08;;
27305;SDS011;14792;50.886;6.468;2023-12-22T19:31:49;11.73;;;1.77;;
27305;SDS011;14792;50.886;6.468;2023-12-22T19:34:50;8.08;;;2.20;;
27305;SDS011;14792;50.886;6.468;2023-12-22T19:37:52;11.30;;;1.87;;
27305;SDS011;14792;50.886;6.468;2023-12-22T19:40:53;10.05;;;1.75;;
27305;SDS011;14792;50.886;6.468;2023-12-22T19:43:55;7.87;;;1.72;;
27305;SDS011;14792;50.886;6.468;2023-12-22T19:46:56;8.23;;;1.92;;
27305;SDS011;14792;50.886;6.468;2023-12-22T19:49:58;7.17;;;1.75;;
27305;SDS011;14792;50.886;6.468;2023-12-22T19:53:00;9.83;;;1.77;;
27305;SDS011;14792;50.886;6.468;2023-12-22T19:56:01;7.72;;;2.20;;
27305;SDS011;14792;50.886;6.468;2023-12-22T19:59:03;11.55;;;1.90;;
27305;SDS011;14792;50.886;6.468;2023-12-22T20:02:04;11.03;;;2.30;;
27305;SDS011;14792;50.886;6.468;2023-12-22T20:05:06;9.93;;;1.95;;
27305;SDS011;14792;50.886;6.468;2023-12-22T20:08:07;7.42;;;1.85;;
27305;SDS011;14792;50.886;6.468;2023-12-22T20:11:09;8.68;;;1.60;;
27305;SDS011;14792;50.886;6.468;2023-12-22T20:14:11;5.42;;;1.40;;
27305;SDS011;14792;50.886;6.468;2023-12-22T20:17:12;5.87;;;1.35;;
27305;SDS011;14792;50.886;6.468;2023-12-22T20:20:14;11.80;;;1.67;;
27305;SDS011;14792;50.886;6.468;2023-12-22T20:23:15;7.22;;;1.82;;
27305;SDS011;14792;50.886;6.468;2023-12-22T20:26:17;7.85;;;1.67;;
27305;SDS011;14792;50.886;6.468;2023-12-22T20:29:19;10.25;;;1.60;;
27305;SDS011;14792;50.886;6.468;2023-12-22T20:32:20;9.23;;;1.87;;
27305;SDS011;14792;50.886;6.468;2023-12-22T20:35:22;10.32;;;2.35;;
27305;SDS011;14792;50.886;6.468;2023-12-22T20:38:23;7.40;;;1.85;;
27305;SDS011;14792;50.886;6.468;2023-12-22T20:41:25;11.25;;;2.17;;
27305;SDS011;14792;50.886;6.468;2023-12-22T20:44:26;5.03;;;1.72;;
27305;SDS011;14792;50.886;6.468;2023-12-22T20:47:28;10.00;;;2.10;;
27305;SDS011;14792;50.886;6.468;2023-12-22T20:50:30;6.40;;;1.42;;
27305;SDS011;14792;50.886;6.468;2023-12-22T20:53:31;10.93;;;1.95;;
27305;SDS011;14792;50.886;6.468;2023-12-22T20:56:33;8.60;;;1.75;;
27305;SDS011;14792;50.886;6.468;2023-12-22T20:59:34;7.42;;;1.90;;
27305;SDS011;14792;50.886;6.468;2023-12-22T21:02:36;10.05;;;1.98;;
27305;SDS011;14792;50.886;6.468;2023-12-22T21:05:38;11.25;;;2.15;;
27305;SDS011;14792;50.886;6.468;2023-12-22T21:08:39;10.65;;;2.35;;
27305;SDS011;14792;50.886;6.468;2023-12-22T21:11:41;9.55;;;1.67;;
27305;SDS011;14792;50.886;6.468;2023-12-22T21:14:42;12.35;;;1.95;;
27305;SDS011;14792;50.886;6.468;2023-12-22T21:17:44;8.33;;;1.50;;
27305;SDS011;14792;50.886;6.468;2023-12-22T21:20:45;9.08;;;1.70;;
27305;SDS011;14792;50.886;6.468;2023-12-22T21:23:47;9.25;;;2.08;;
27305;SDS011;14792;50.886;6.468;2023-12-22T21:26:49;8.88;;;1.92;;
27305;SDS011;14792;50.886;6.468;2023-12-22T21:29:50;7.60;;;1.50;;
27305;SDS011;14792;50.886;6.468;2023-12-22T21:35:54;8.05;;;1.75;;
27305;SDS011;14792;50.886;6.468;2023-12-22T21:38:58;5.55;;;1.27;;
27305;SDS011;14792;50.886;6.468;2023-12-22T21:41:57;7.75;;;1.62;;
27305;SDS011;14792;50.886;6.468;2023-12-22T21:44:58;9.13;;;1.70;;
27305;SDS011;14792;50.886;6.468;2023-12-22T21:48:00;13.18;;;1.75;;
27305;SDS011;14792;50.886;6.468;2023-12-22T21:51:05;8.78;;;2.05;;
27305;SDS011;14792;50.886;6.468;2023-12-22T21:54:06;11.00;;;2.00;;
27305;SDS011;14792;50.886;6.468;2023-12-22T21:57:08;8.25;;;2.22;;
27305;SDS011;14792;50.886;6.468;2023-12-22T22:00:10;14.95;;;2.60;;
27305;SDS011;14792;50.886;6.468;2023-12-22T22:03:12;9.13;;;1.57;;
27305;SDS011;14792;50.886;6.468;2023-12-22T22:06:14;12.10;;;2.62;;
27305;SDS011;14792;50.886;6.468;2023-12-22T22:09:15;8.65;;;1.72;;
27305;SDS011;14792;50.886;6.468;2023-12-22T22:12:17;6.08;;;1.50;;
27305;SDS011;14792;50.886;6.468;2023-12-22T22:15:18;10.10;;;1.85;;
27305;SDS011;14792;50.886;6.468;2023-12-22T22:18:20;8.78;;;1.87;;